createdAt,value
2017-07-15T00:00:23.140Z,13.60
2017-07-15T00:01:23.856Z,13.68
2017-07-15T00:02:24.581Z,13.67
2017-07-15T00:03:25.298Z,13.54
2017-07-15T00:04:26.022Z,13.49
2017-07-15T00:05:26.765Z,13.54
2017-07-15T00:06:27.486Z,13.53
2017-07-15T00:07:28.204Z,13.52
2017-07-15T00:08:28.929Z,13.44
2017-07-15T00:09:29.645Z,13.46
2017-07-15T00:10:30.388Z,13.50
2017-07-15T00:11:31.105Z,13.57
2017-07-15T00:12:31.829Z,13.49
2017-07-15T00:13:32.547Z,13.49
2017-07-15T00:14:33.271Z,13.53
2017-07-15T00:15:33.992Z,13.50
2017-07-15T00:16:34.713Z,13.54
2017-07-15T00:17:35.431Z,13.46
2017-07-15T00:18:36.151Z,13.42
2017-07-15T00:19:36.872Z,13.47
2017-07-15T00:20:37.596Z,13.47
2017-07-15T00:21:38.368Z,13.46
2017-07-15T00:22:39.063Z,13.46
2017-07-15T00:23:39.784Z,13.50
2017-07-15T00:24:40.504Z,13.46
2017-07-15T00:25:41.227Z,13.39
2017-07-15T00:26:41.946Z,13.46
2017-07-15T00:27:42.671Z,13.50
2017-07-15T00:28:43.390Z,13.46
2017-07-15T00:29:44.109Z,13.53
2017-07-15T00:30:44.830Z,13.42
2017-07-15T00:31:45.556Z,13.46
2017-07-15T00:32:46.280Z,13.37
2017-07-15T00:33:46.998Z,13.46
2017-07-15T00:34:47.722Z,13.41
2017-07-15T00:35:48.443Z,13.46
2017-07-15T00:36:49.166Z,13.37
2017-07-15T00:37:49.908Z,13.38
2017-07-15T00:38:50.633Z,13.35
2017-07-15T00:39:51.351Z,13.41
2017-07-15T00:40:52.073Z,13.41
2017-07-15T00:41:52.814Z,13.44
2017-07-15T00:42:53.537Z,13.35
2017-07-15T00:43:54.256Z,13.41
2017-07-15T00:44:54.997Z,13.42
2017-07-15T00:45:55.739Z,13.37
2017-07-15T00:46:56.458Z,13.46
2017-07-15T00:47:57.178Z,13.41
2017-07-15T00:48:57.900Z,13.47
2017-07-15T00:49:58.642Z,13.44
2017-07-15T00:50:59.363Z,13.37
2017-07-15T00:52:00.094Z,13.44
2017-07-15T00:53:00.828Z,13.42
2017-07-15T00:54:01.549Z,13.38
2017-07-15T00:55:02.269Z,13.35
2017-07-15T00:56:02.989Z,13.31
2017-07-15T00:57:03.709Z,13.44
2017-07-15T00:58:04.427Z,13.53
2017-07-15T00:59:05.149Z,13.39
2017-07-15T01:00:05.868Z,13.50
2017-07-15T01:01:06.594Z,13.42
2017-07-15T01:02:07.340Z,13.44
2017-07-15T01:03:08.060Z,13.38
2017-07-15T01:04:08.780Z,13.38
2017-07-15T01:05:09.500Z,13.28
2017-07-15T01:06:10.216Z,13.37
2017-07-15T01:07:10.936Z,13.38
2017-07-15T01:08:11.674Z,13.33
2017-07-15T01:09:12.391Z,13.38
2017-07-15T01:10:13.113Z,13.39
2017-07-15T01:11:13.837Z,13.44
2017-07-15T01:13:30.139Z,13.23
2017-07-15T01:14:30.881Z,13.39
2017-07-15T01:15:31.602Z,13.37
2017-07-15T01:16:32.322Z,13.25
2017-07-15T01:17:33.036Z,13.39
2017-07-15T01:18:33.754Z,13.30
2017-07-15T01:19:34.479Z,13.38
2017-07-15T01:20:35.196Z,13.31
2017-07-15T01:21:35.922Z,13.28
2017-07-15T01:22:36.662Z,13.31
2017-07-15T01:23:37.384Z,13.33
2017-07-15T01:24:38.099Z,13.33
2017-07-15T01:25:38.815Z,13.35
2017-07-15T01:26:39.536Z,13.33
2017-07-15T01:27:40.255Z,13.30
2017-07-15T01:28:40.973Z,13.31
2017-07-15T01:29:41.696Z,13.25
2017-07-15T01:30:42.415Z,13.28
2017-07-15T01:31:43.157Z,13.33
2017-07-15T01:32:43.877Z,13.28
2017-07-15T01:33:44.594Z,13.20
2017-07-15T01:34:45.333Z,13.30
2017-07-15T01:35:46.071Z,13.33
2017-07-15T01:36:46.797Z,13.25
2017-07-15T01:37:47.510Z,13.28
2017-07-15T01:38:48.253Z,13.27
2017-07-15T01:39:48.993Z,13.19
2017-07-15T01:40:49.715Z,13.27
2017-07-15T01:41:50.435Z,13.28
2017-07-15T01:42:51.176Z,13.23
2017-07-15T01:43:51.898Z,13.18
2017-07-15T01:44:52.616Z,13.19
2017-07-15T01:45:53.336Z,13.18
2017-07-15T01:46:54.079Z,13.13
2017-07-15T01:47:54.814Z,13.18
2017-07-15T01:48:55.556Z,13.15
2017-07-15T01:49:56.274Z,13.13
2017-07-15T01:50:56.991Z,13.15
2017-07-15T01:51:57.711Z,13.13
2017-07-15T01:52:58.433Z,13.12
2017-07-15T01:53:59.153Z,13.11
2017-07-15T01:54:59.869Z,13.11
2017-07-15T01:56:00.589Z,13.13
2017-07-15T01:57:01.309Z,13.18
2017-07-15T01:58:02.045Z,13.16
2017-07-15T01:59:02.785Z,13.15
2017-07-15T02:00:03.502Z,13.12
2017-07-15T02:01:04.227Z,13.12
2017-07-15T02:02:04.944Z,13.11
2017-07-15T02:03:05.665Z,13.05
2017-07-15T02:04:06.412Z,13.12
2017-07-15T02:05:07.127Z,13.11
2017-07-15T02:06:07.844Z,13.12
2017-07-15T02:07:08.574Z,13.05
2017-07-15T02:08:09.289Z,13.01
2017-07-15T02:09:10.027Z,13.12
2017-07-15T02:10:10.751Z,13.04
2017-07-15T02:11:11.481Z,13.00
2017-07-15T02:12:12.200Z,13.01
2017-07-15T02:13:12.923Z,13.05
2017-07-15T02:14:13.637Z,13.05
2017-07-15T02:15:14.361Z,13.09
2017-07-15T02:16:15.082Z,13.04
2017-07-15T02:17:15.800Z,13.00
2017-07-15T02:18:16.518Z,13.00
2017-07-15T02:19:17.239Z,13.08
2017-07-15T02:20:17.958Z,12.97
2017-07-15T02:21:18.679Z,13.04
2017-07-15T02:22:19.415Z,13.05
2017-07-15T02:23:20.139Z,13.03
2017-07-15T02:24:20.879Z,13.11
2017-07-15T02:25:21.598Z,13.11
2017-07-15T02:26:22.317Z,13.04
2017-07-15T02:27:23.038Z,13.03
2017-07-15T02:28:23.759Z,13.15
2017-07-15T02:29:24.480Z,12.98
2017-07-15T02:30:25.199Z,13.00
2017-07-15T02:31:25.940Z,13.13
2017-07-15T02:32:26.678Z,13.12
2017-07-15T02:33:27.417Z,13.08
2017-07-15T02:34:28.134Z,13.18
2017-07-15T02:35:28.878Z,13.16
2017-07-15T02:36:29.617Z,13.16
2017-07-15T02:37:30.340Z,13.16
2017-07-15T02:38:31.082Z,13.19
2017-07-15T02:39:31.804Z,13.22
2017-07-15T02:40:32.525Z,13.16
2017-07-15T02:41:33.261Z,13.23
2017-07-15T02:42:33.988Z,13.31
2017-07-15T02:43:34.702Z,13.27
2017-07-15T02:44:35.448Z,13.18
2017-07-15T02:45:36.163Z,13.19
2017-07-15T02:46:36.885Z,13.23
2017-07-15T02:47:37.609Z,13.23
2017-07-15T02:48:38.330Z,13.31
2017-07-15T02:49:39.071Z,13.20
2017-07-15T02:50:39.792Z,13.19
2017-07-15T02:51:40.531Z,13.30
2017-07-15T02:52:41.273Z,13.27
2017-07-15T02:53:41.992Z,13.18
2017-07-15T02:54:42.715Z,13.27
2017-07-15T02:55:43.430Z,13.30
2017-07-15T02:56:44.145Z,13.33
2017-07-15T02:57:44.865Z,13.41
2017-07-15T02:58:45.588Z,13.39
2017-07-15T02:59:46.308Z,13.22
2017-07-15T03:00:47.053Z,13.28
2017-07-15T03:01:47.770Z,13.41
2017-07-15T03:02:48.517Z,13.39
2017-07-15T03:03:49.234Z,13.41
2017-07-15T03:04:49.959Z,13.35
2017-07-15T03:05:50.679Z,13.38
2017-07-15T03:06:51.404Z,13.44
2017-07-15T03:07:52.127Z,13.42
2017-07-15T03:08:52.845Z,13.38
2017-07-15T03:09:53.569Z,13.33
2017-07-15T03:10:54.313Z,13.47
2017-07-15T03:11:55.054Z,13.44
2017-07-15T03:12:55.777Z,13.46
2017-07-15T03:13:56.500Z,13.46
2017-07-15T03:14:57.224Z,13.41
2017-07-15T03:15:57.944Z,13.62
2017-07-15T03:16:58.687Z,13.50
2017-07-15T03:17:59.406Z,13.49
2017-07-15T03:19:00.126Z,13.53
2017-07-15T03:20:00.843Z,13.54
2017-07-15T03:21:01.585Z,13.52
2017-07-15T03:22:02.307Z,13.60
2017-07-15T03:23:03.029Z,13.49
2017-07-15T03:24:03.746Z,13.67
2017-07-15T03:25:04.469Z,13.59
2017-07-15T03:26:05.206Z,13.65
2017-07-15T03:27:05.925Z,13.60
2017-07-15T03:28:06.651Z,13.63
2017-07-15T03:29:07.373Z,13.65
2017-07-15T03:30:08.091Z,13.62
2017-07-15T03:31:08.813Z,13.63
2017-07-15T03:32:09.537Z,13.67
2017-07-15T03:33:10.256Z,13.70
2017-07-15T03:34:10.976Z,13.65
2017-07-15T03:35:11.709Z,13.68
2017-07-15T03:36:12.421Z,13.70
2017-07-15T03:37:13.148Z,13.70
2017-07-15T03:38:13.869Z,13.78
2017-07-15T03:39:14.612Z,13.74
2017-07-15T03:40:15.336Z,13.74
2017-07-15T03:41:16.059Z,13.79
2017-07-15T03:42:16.802Z,13.79
2017-07-15T03:43:17.526Z,13.77
2017-07-15T03:44:18.252Z,13.79
2017-07-15T03:45:18.997Z,13.93
2017-07-15T03:46:19.740Z,13.87
2017-07-15T03:47:20.461Z,13.87
2017-07-15T03:48:21.185Z,13.83
2017-07-15T03:49:21.928Z,13.87
2017-07-15T03:50:22.654Z,13.78
2017-07-15T03:51:23.399Z,13.78
2017-07-15T03:52:24.121Z,13.87
2017-07-15T03:53:24.845Z,13.85
2017-07-15T03:54:25.568Z,13.87
2017-07-15T03:55:26.293Z,13.90
2017-07-15T03:56:27.034Z,13.83
2017-07-15T03:57:27.760Z,13.87
2017-07-15T03:58:28.481Z,13.90
2017-07-15T03:59:29.203Z,13.87
2017-07-15T04:00:29.925Z,13.86
2017-07-15T04:01:30.648Z,13.85
2017-07-15T04:02:31.375Z,13.86
2017-07-15T04:03:32.099Z,13.81
2017-07-15T04:04:32.819Z,13.77
2017-07-15T04:05:33.549Z,13.78
2017-07-15T04:06:34.269Z,13.86
2017-07-15T04:07:34.993Z,13.79
2017-07-15T04:08:35.720Z,13.79
2017-07-15T04:09:36.464Z,13.77
2017-07-15T04:10:37.193Z,13.75
2017-07-15T04:11:37.938Z,13.79
2017-07-15T04:12:38.662Z,13.87
2017-07-15T04:13:39.389Z,13.79
2017-07-15T04:14:40.114Z,13.79
2017-07-15T04:15:40.842Z,13.86
2017-07-15T04:16:41.566Z,13.86
2017-07-15T04:17:42.289Z,13.87
2017-07-15T04:18:43.018Z,13.95
2017-07-15T04:19:43.766Z,13.97
2017-07-15T04:20:44.486Z,13.90
2017-07-15T04:21:45.233Z,14.04
2017-07-15T04:22:45.978Z,14.03
2017-07-15T04:23:46.704Z,14.05
2017-07-15T04:24:47.425Z,14.03
2017-07-15T04:25:48.154Z,14.08
2017-07-15T04:26:48.879Z,13.99
2017-07-15T04:27:49.602Z,14.03
2017-07-15T04:28:50.344Z,14.12
2017-07-15T04:29:51.089Z,14.10
2017-07-15T04:30:51.817Z,14.15
2017-07-15T04:31:52.564Z,14.08
2017-07-15T04:32:53.286Z,14.10
2017-07-15T04:33:54.007Z,14.14
2017-07-15T04:34:54.733Z,14.10
2017-07-15T04:35:55.465Z,14.25
2017-07-15T04:36:56.186Z,14.18
2017-07-15T04:37:56.911Z,14.17
2017-07-15T04:38:57.638Z,14.08
2017-07-15T04:39:58.379Z,14.15
2017-07-15T04:40:59.103Z,14.20
2017-07-15T04:41:59.832Z,14.18
2017-07-15T04:43:00.554Z,14.26
2017-07-15T04:44:01.280Z,14.20
2017-07-15T04:45:02.007Z,14.22
2017-07-15T04:46:02.735Z,14.20
2017-07-15T04:47:03.455Z,14.28
2017-07-15T04:48:04.184Z,14.20
2017-07-15T04:49:04.911Z,14.28
2017-07-15T04:50:05.658Z,14.26
2017-07-15T04:51:06.386Z,14.22
2017-07-15T04:52:07.111Z,14.28
2017-07-15T04:53:07.856Z,14.26
2017-07-15T04:54:08.584Z,14.25
2017-07-15T04:55:09.309Z,14.29
2017-07-15T04:56:10.054Z,14.26
2017-07-15T04:57:10.796Z,14.28
2017-07-15T04:58:11.521Z,14.29
2017-07-15T04:59:12.249Z,14.29
2017-07-15T05:00:12.997Z,14.29
2017-07-15T05:01:13.722Z,14.29
2017-07-15T05:02:14.450Z,14.37
2017-07-15T05:03:15.177Z,14.41
2017-07-15T05:04:15.900Z,14.35
2017-07-15T05:05:16.629Z,14.44
2017-07-15T05:06:17.370Z,14.44
2017-07-15T05:07:18.097Z,14.41
2017-07-15T05:08:18.844Z,14.47
2017-07-15T05:09:19.573Z,14.53
2017-07-15T05:10:20.309Z,14.47
2017-07-15T05:11:21.041Z,14.44
2017-07-15T05:12:21.763Z,14.58
2017-07-15T05:13:22.489Z,14.53
2017-07-15T05:14:23.221Z,14.55
2017-07-15T05:15:23.946Z,14.51
2017-07-15T05:16:24.670Z,14.50
2017-07-15T05:17:25.398Z,14.69
2017-07-15T05:18:26.123Z,14.60
2017-07-15T05:19:26.869Z,14.59
2017-07-15T05:20:27.572Z,14.60
2017-07-15T05:21:28.317Z,14.68
2017-07-15T05:22:29.065Z,14.65
2017-07-15T05:23:29.813Z,14.66
2017-07-15T05:24:30.560Z,14.68
2017-07-15T05:25:31.288Z,14.68
2017-07-15T05:26:32.012Z,14.77
2017-07-15T05:27:32.735Z,14.58
2017-07-15T05:28:33.463Z,14.73
2017-07-15T05:29:34.184Z,14.65
2017-07-15T05:30:34.912Z,14.58
2017-07-15T05:31:35.635Z,14.59
2017-07-15T05:32:36.357Z,14.58
2017-07-15T05:33:37.081Z,14.55
2017-07-15T05:34:37.804Z,14.59
2017-07-15T05:35:38.551Z,14.62
2017-07-15T05:36:39.275Z,14.65
2017-07-15T05:37:40.021Z,14.62
2017-07-15T05:38:40.766Z,14.65
2017-07-15T05:39:41.490Z,14.69
2017-07-15T05:40:42.215Z,14.72
2017-07-15T05:41:42.947Z,14.81
2017-07-15T05:42:43.672Z,14.86
2017-07-15T05:43:44.399Z,14.79
2017-07-15T05:44:45.126Z,14.86
2017-07-15T05:45:45.851Z,14.85
2017-07-15T05:46:46.581Z,14.79
2017-07-15T05:47:47.311Z,14.85
2017-07-15T05:48:48.043Z,14.78
2017-07-15T05:49:48.761Z,14.91
2017-07-15T05:50:49.494Z,14.96
2017-07-15T05:51:50.214Z,14.94
2017-07-15T05:52:50.942Z,14.92
2017-07-15T05:53:51.666Z,14.94
2017-07-15T05:54:52.390Z,15.00
2017-07-15T05:55:53.114Z,14.92
2017-07-15T05:56:53.865Z,14.88
2017-07-15T05:57:54.590Z,14.91
2017-07-15T05:58:55.314Z,14.86
2017-07-15T05:59:56.047Z,14.85
2017-07-15T06:00:56.773Z,14.97
2017-07-15T06:01:57.497Z,15.06
2017-07-15T06:02:58.226Z,15.02
2017-07-15T06:03:58.980Z,15.27
2017-07-15T06:04:59.701Z,15.29
2017-07-15T06:06:00.447Z,15.47
2017-07-15T06:07:01.170Z,15.54
2017-07-15T06:08:01.899Z,15.75
2017-07-15T06:09:02.623Z,15.68
2017-07-15T06:10:03.370Z,15.79
2017-07-15T06:11:04.119Z,15.82
2017-07-15T06:12:04.846Z,15.98
2017-07-15T06:13:05.573Z,15.86
2017-07-15T06:14:06.298Z,15.97
2017-07-15T06:15:07.026Z,15.97
2017-07-15T06:16:07.753Z,16.09
2017-07-15T06:17:08.485Z,16.10
2017-07-15T06:18:09.228Z,15.97
2017-07-15T06:19:09.955Z,15.98
2017-07-15T06:20:10.679Z,15.70
2017-07-15T06:21:11.407Z,15.75
2017-07-15T06:22:12.157Z,15.91
2017-07-15T06:23:12.879Z,15.83
2017-07-15T06:24:13.633Z,15.84
2017-07-15T06:25:14.332Z,15.80
2017-07-15T06:26:15.064Z,15.73
2017-07-15T06:27:15.786Z,15.68
2017-07-15T06:28:16.516Z,15.62
2017-07-15T06:29:17.237Z,15.55
2017-07-15T06:30:17.965Z,15.55
2017-07-15T06:31:18.691Z,15.65
2017-07-15T06:32:19.419Z,15.68
2017-07-15T06:33:20.147Z,15.67
2017-07-15T06:34:20.872Z,15.62
2017-07-15T06:35:21.621Z,15.65
2017-07-15T06:36:22.343Z,15.64
2017-07-15T06:37:23.089Z,15.55
2017-07-15T06:38:23.816Z,15.54
2017-07-15T06:39:24.562Z,15.55
2017-07-15T06:40:25.287Z,15.59
2017-07-15T06:41:26.033Z,15.57
2017-07-15T06:42:26.761Z,15.59
2017-07-15T06:43:27.510Z,15.73
2017-07-15T06:44:28.237Z,15.73
2017-07-15T06:45:28.962Z,15.83
2017-07-15T06:46:29.692Z,15.86
2017-07-15T06:47:30.416Z,15.88
2017-07-15T06:48:31.146Z,15.92
2017-07-15T06:49:31.896Z,15.97
2017-07-15T06:50:32.642Z,16.13
2017-07-15T06:51:33.370Z,16.05
2017-07-15T06:52:34.118Z,16.10
2017-07-15T06:53:34.843Z,16.09
2017-07-15T06:54:35.572Z,16.09
2017-07-15T06:55:36.321Z,16.20
2017-07-15T06:56:37.070Z,16.23
2017-07-15T06:57:37.795Z,16.26
2017-07-15T06:58:38.522Z,16.26
2017-07-15T06:59:39.249Z,16.31
2017-07-15T07:00:39.977Z,16.33
2017-07-15T07:01:40.705Z,16.21
2017-07-15T07:02:41.434Z,16.17
2017-07-15T07:03:42.160Z,16.20
2017-07-15T07:04:42.888Z,16.24
2017-07-15T07:05:43.616Z,16.21
2017-07-15T07:06:44.341Z,16.21
2017-07-15T07:07:45.065Z,16.29
2017-07-15T07:08:45.811Z,16.24
2017-07-15T07:09:46.538Z,16.31
2017-07-15T07:10:47.264Z,16.00
2017-07-15T07:11:47.993Z,16.09
2017-07-15T07:12:48.743Z,16.26
2017-07-15T07:13:49.468Z,16.29
2017-07-15T07:14:50.194Z,16.33
2017-07-15T07:15:50.941Z,16.29
2017-07-15T07:16:51.669Z,16.17
2017-07-15T07:17:52.394Z,16.21
2017-07-15T07:18:53.122Z,16.20
2017-07-15T07:19:53.868Z,16.08
2017-07-15T07:20:54.595Z,16.20
2017-07-15T07:21:55.325Z,16.28
2017-07-15T07:22:56.049Z,16.29
2017-07-15T07:23:56.799Z,16.35
2017-07-15T07:24:57.526Z,16.36
2017-07-15T07:25:58.254Z,16.53
2017-07-15T07:26:58.979Z,16.54
2017-07-15T07:27:59.708Z,16.61
2017-07-15T07:29:00.458Z,16.76
2017-07-15T07:30:01.188Z,16.83
2017-07-15T07:31:01.916Z,16.89
2017-07-15T07:32:02.642Z,16.99
2017-07-15T07:33:03.370Z,16.83
2017-07-15T07:34:04.105Z,16.86
2017-07-15T07:35:04.827Z,16.96
2017-07-15T07:36:05.573Z,16.93
2017-07-15T07:37:06.323Z,16.91
2017-07-15T07:38:07.051Z,16.99
2017-07-15T07:39:07.777Z,17.01
2017-07-15T07:40:08.522Z,17.01
2017-07-15T07:41:09.251Z,17.04
2017-07-15T07:42:09.978Z,17.15
2017-07-15T07:43:10.710Z,17.24
2017-07-15T07:44:11.463Z,17.20
2017-07-15T07:45:12.192Z,17.26
2017-07-15T07:46:12.922Z,17.30
2017-07-15T07:47:13.654Z,17.41
2017-07-15T07:48:14.384Z,17.45
2017-07-15T07:49:15.112Z,17.51
2017-07-15T07:50:15.843Z,17.59
2017-07-15T07:51:16.573Z,17.48
2017-07-15T07:52:17.321Z,17.45
2017-07-15T07:53:18.050Z,17.45
2017-07-15T07:54:18.775Z,17.44
2017-07-15T07:55:19.505Z,17.31
2017-07-15T07:56:20.235Z,17.16
2017-07-15T07:57:20.969Z,17.19
2017-07-15T07:58:21.695Z,17.26
2017-07-15T07:59:22.428Z,17.22
2017-07-15T08:00:23.152Z,17.20
2017-07-15T08:01:23.887Z,17.31
2017-07-15T08:02:24.616Z,17.39
2017-07-15T08:03:25.346Z,17.54
2017-07-15T08:04:26.083Z,17.78
2017-07-15T08:05:26.814Z,17.89
2017-07-15T08:06:27.546Z,18.03
2017-07-15T08:07:28.300Z,18.01
2017-07-15T08:08:29.058Z,18.28
2017-07-15T08:09:29.787Z,18.35
2017-07-15T08:10:30.543Z,18.55
2017-07-15T08:11:31.285Z,18.92
2017-07-15T08:12:32.019Z,19.26
2017-07-15T08:13:32.755Z,19.52
2017-07-15T08:14:33.493Z,19.73
2017-07-15T08:15:34.230Z,19.94
2017-07-15T08:16:34.966Z,19.99
2017-07-15T08:17:35.722Z,20.06
2017-07-15T08:18:36.458Z,19.96
2017-07-15T08:19:37.215Z,20.09
2017-07-15T08:20:37.972Z,20.16
2017-07-15T08:21:38.710Z,20.18
2017-07-15T08:22:39.446Z,19.96
2017-07-15T08:23:40.184Z,19.92
2017-07-15T08:24:40.934Z,20.04
2017-07-15T08:25:41.671Z,19.76
2017-07-15T08:26:42.423Z,19.76
2017-07-15T08:27:43.157Z,19.49
2017-07-15T08:28:43.890Z,19.45
2017-07-15T08:29:44.618Z,18.95
2017-07-15T08:30:45.354Z,18.92
2017-07-15T08:31:46.083Z,18.70
2017-07-15T08:32:46.818Z,18.49
2017-07-15T08:33:47.569Z,18.41
2017-07-15T08:34:48.299Z,18.18
2017-07-15T08:35:49.048Z,18.22
2017-07-15T08:36:49.799Z,17.97
2017-07-15T08:37:50.527Z,17.80
2017-07-15T08:38:51.253Z,17.89
2017-07-15T08:39:51.985Z,17.83
2017-07-15T08:40:52.714Z,17.87
2017-07-15T08:41:53.442Z,17.74
2017-07-15T08:42:54.175Z,17.76
2017-07-15T08:43:54.928Z,17.89
2017-07-15T08:44:55.655Z,18.01
2017-07-15T08:45:56.384Z,17.97
2017-07-15T08:46:57.116Z,18.08
2017-07-15T08:47:57.868Z,18.25
2017-07-15T08:48:58.624Z,18.37
2017-07-15T08:49:59.356Z,18.40
2017-07-15T08:51:00.109Z,18.26
2017-07-15T08:52:00.839Z,18.25
2017-07-15T08:53:01.566Z,18.22
2017-07-15T08:54:02.300Z,18.08
2017-07-15T08:55:03.027Z,18.10
2017-07-15T08:56:03.757Z,18.38
2017-07-15T08:57:04.490Z,18.52
2017-07-15T08:58:05.244Z,18.73
2017-07-15T08:59:06.002Z,18.77
2017-07-15T09:00:06.731Z,18.86
2017-07-15T09:01:07.459Z,18.88
2017-07-15T09:02:08.188Z,18.78
2017-07-15T09:03:08.917Z,18.80
2017-07-15T09:04:09.669Z,18.93
2017-07-15T09:05:10.401Z,19.09
2017-07-15T09:06:11.135Z,19.21
2017-07-15T09:07:11.869Z,19.26
2017-07-15T09:08:12.616Z,19.41
2017-07-15T09:09:13.350Z,19.73
2017-07-15T09:10:14.086Z,19.79
2017-07-15T09:11:14.824Z,19.76
2017-07-15T09:12:15.561Z,19.71
2017-07-15T09:13:16.293Z,19.84
2017-07-15T09:14:17.053Z,19.66
2017-07-15T09:15:17.794Z,19.62
2017-07-15T09:16:18.530Z,19.66
2017-07-15T09:17:19.269Z,19.95
2017-07-15T09:18:20.012Z,20.65
2017-07-15T09:19:20.756Z,20.84
2017-07-15T09:20:21.520Z,21.12
2017-07-15T09:21:22.264Z,21.02
2017-07-15T09:22:23.001Z,20.80
2017-07-15T09:23:23.735Z,20.84
2017-07-15T09:24:24.475Z,20.80
2017-07-15T09:25:25.238Z,20.59
2017-07-15T09:26:25.974Z,20.32
2017-07-15T09:27:26.715Z,19.91
2017-07-15T09:28:27.462Z,19.95
2017-07-15T09:29:28.219Z,20.09
2017-07-15T09:30:28.939Z,19.92
2017-07-15T09:31:29.680Z,19.86
2017-07-15T09:32:30.420Z,20.02
2017-07-15T09:33:31.158Z,19.56
2017-07-15T09:34:31.897Z,19.67
2017-07-15T09:35:32.635Z,19.67
2017-07-15T09:36:33.392Z,19.71
2017-07-15T09:37:34.129Z,19.76
2017-07-15T09:38:34.868Z,19.88
2017-07-15T09:39:35.606Z,19.92
2017-07-15T09:40:36.332Z,19.81
2017-07-15T09:41:37.064Z,19.58
2017-07-15T09:42:37.820Z,19.70
2017-07-15T09:43:38.558Z,19.73
2017-07-15T09:44:39.290Z,19.70
2017-07-15T09:45:40.023Z,19.81
2017-07-15T09:46:40.760Z,19.66
2017-07-15T09:47:41.495Z,19.51
2017-07-15T09:48:42.226Z,19.37
2017-07-15T09:49:42.959Z,19.51
2017-07-15T09:50:43.697Z,19.71
2017-07-15T09:51:44.424Z,19.89
2017-07-15T09:52:45.159Z,20.00
2017-07-15T09:53:45.912Z,20.13
2017-07-15T09:54:46.666Z,20.21
2017-07-15T09:55:47.396Z,20.29
2017-07-15T09:56:48.135Z,20.62
2017-07-15T09:57:48.891Z,20.60
2017-07-15T09:58:49.628Z,20.82
2017-07-15T09:59:50.367Z,20.80
2017-07-15T10:00:51.106Z,21.27
2017-07-15T10:01:51.847Z,20.88
2017-07-15T10:02:52.589Z,21.17
2017-07-15T10:03:53.332Z,21.30
2017-07-15T10:04:54.077Z,21.37
2017-07-15T10:05:54.812Z,21.75
2017-07-15T10:06:55.551Z,21.96
2017-07-15T10:07:56.288Z,21.72
2017-07-15T10:08:57.028Z,21.75
2017-07-15T10:09:57.791Z,21.67
2017-07-15T10:10:58.530Z,22.22
2017-07-15T10:11:59.274Z,22.32
2017-07-15T10:13:00.031Z,22.22
2017-07-15T10:14:00.776Z,22.20
2017-07-15T10:15:01.516Z,22.36
2017-07-15T10:16:02.254Z,22.17
2017-07-15T10:17:03.015Z,22.69
2017-07-15T10:18:03.757Z,23.10
2017-07-15T10:19:04.501Z,23.32
2017-07-15T10:20:05.243Z,23.59
2017-07-15T10:21:05.983Z,24.05
2017-07-15T10:22:06.725Z,24.40
2017-07-15T10:23:07.471Z,24.33
2017-07-15T10:24:08.209Z,24.10
2017-07-15T10:25:08.953Z,23.59
2017-07-15T10:26:09.695Z,23.96
2017-07-15T10:27:10.434Z,24.26
2017-07-15T10:28:11.176Z,24.06
2017-07-15T10:29:11.921Z,24.24
2017-07-15T10:30:12.685Z,24.60
2017-07-15T10:31:13.432Z,24.74
2017-07-15T10:32:14.179Z,25.54
2017-07-15T10:33:14.933Z,25.95
2017-07-15T10:34:15.685Z,25.85
2017-07-15T10:35:16.437Z,26.26
2017-07-15T10:36:17.196Z,26.78
2017-07-15T10:37:17.946Z,26.70
2017-07-15T10:38:18.719Z,26.68
2017-07-15T10:39:19.469Z,27.00
2017-07-15T10:40:20.222Z,26.95
2017-07-15T10:41:20.994Z,26.47
2017-07-15T10:42:21.741Z,26.53
2017-07-15T10:43:22.493Z,27.03
2017-07-15T10:44:23.240Z,26.07
2017-07-15T10:45:24.010Z,25.47
2017-07-15T10:46:24.762Z,24.99
2017-07-15T10:47:25.544Z,25.13
2017-07-15T10:48:26.289Z,24.74
2017-07-15T10:49:27.045Z,24.60
2017-07-15T10:50:27.786Z,24.24
2017-07-15T10:51:28.523Z,24.17
2017-07-15T10:52:29.263Z,24.06
2017-07-15T10:53:30.006Z,23.80
2017-07-15T10:54:30.741Z,23.36
2017-07-15T10:55:31.484Z,23.50
2017-07-15T10:56:32.222Z,23.66
2017-07-15T10:57:32.958Z,23.37
2017-07-15T10:58:33.703Z,23.34
2017-07-15T10:59:34.444Z,23.62
2017-07-15T11:00:35.179Z,22.91
2017-07-15T11:01:35.927Z,22.87
2017-07-15T11:02:36.657Z,22.50
2017-07-15T11:03:37.394Z,21.85
2017-07-15T11:04:38.133Z,21.77
2017-07-15T11:05:38.867Z,21.99
2017-07-15T11:06:39.627Z,22.17
2017-07-15T11:07:40.364Z,22.39
2017-07-15T11:08:41.102Z,22.51
2017-07-15T11:09:41.841Z,22.13
2017-07-15T11:10:42.578Z,21.82
2017-07-15T11:11:43.310Z,21.72
2017-07-15T11:12:44.044Z,21.37
2017-07-15T11:13:44.778Z,21.46
2017-07-15T11:14:45.509Z,21.66
2017-07-15T11:15:46.250Z,21.76
2017-07-15T11:16:46.989Z,21.77
2017-07-15T11:17:47.730Z,21.72
2017-07-15T11:18:48.455Z,21.85
2017-07-15T11:19:49.194Z,21.66
2017-07-15T11:20:49.928Z,21.60
2017-07-15T11:21:50.665Z,21.66
2017-07-15T11:22:51.404Z,21.60
2017-07-15T11:23:52.145Z,21.67
2017-07-15T11:24:52.879Z,21.75
2017-07-15T11:25:53.616Z,21.91
2017-07-15T11:26:54.355Z,21.99
2017-07-15T11:27:55.119Z,22.14
2017-07-15T11:28:55.855Z,22.23
2017-07-15T11:29:56.598Z,22.33
2017-07-15T11:30:57.335Z,22.51
2017-07-15T11:31:58.073Z,22.57
2017-07-15T11:32:58.812Z,22.88
2017-07-15T11:33:59.557Z,23.02
2017-07-15T11:35:00.315Z,23.06
2017-07-15T11:36:01.058Z,23.25
2017-07-15T11:37:01.799Z,23.36
2017-07-15T11:38:02.533Z,23.43
2017-07-15T11:39:03.271Z,23.56
2017-07-15T11:40:04.010Z,23.76
2017-07-15T11:41:04.753Z,23.71
2017-07-15T11:42:05.483Z,23.56
2017-07-15T11:43:06.226Z,23.58
2017-07-15T11:44:06.963Z,23.40
2017-07-15T11:45:07.696Z,23.31
2017-07-15T11:46:08.435Z,23.34
2017-07-15T11:47:09.170Z,23.21
2017-07-15T11:48:09.911Z,22.90
2017-07-15T11:49:10.644Z,22.96
2017-07-15T11:50:11.381Z,23.12
2017-07-15T11:51:12.122Z,23.23
2017-07-15T11:52:12.857Z,23.36
2017-07-15T11:53:13.592Z,23.18
2017-07-15T11:54:14.350Z,23.36
2017-07-15T11:55:15.112Z,23.31
2017-07-15T11:56:15.868Z,23.56
2017-07-15T11:57:16.609Z,23.80
2017-07-15T11:58:17.349Z,23.92
2017-07-15T11:59:18.095Z,23.88
2017-07-15T12:00:18.824Z,23.66
2017-07-15T12:01:19.563Z,23.96
2017-07-15T12:02:20.320Z,23.96
2017-07-15T12:03:21.076Z,24.01
2017-07-15T12:04:21.810Z,24.24
2017-07-15T12:05:22.574Z,24.43
2017-07-15T12:06:23.329Z,24.42
2017-07-15T12:07:24.098Z,24.02
2017-07-15T12:08:24.858Z,23.81
2017-07-15T12:09:25.592Z,23.66
2017-07-15T12:10:26.333Z,22.93
2017-07-15T12:11:27.066Z,22.94
2017-07-15T12:12:27.806Z,23.12
2017-07-15T12:13:28.545Z,23.06
2017-07-15T12:14:29.299Z,23.27
2017-07-15T12:15:30.062Z,23.62
2017-07-15T12:16:30.801Z,23.95
2017-07-15T12:17:31.536Z,24.16
2017-07-15T12:18:32.292Z,24.24
2017-07-15T12:19:33.030Z,24.01
2017-07-15T12:20:33.767Z,24.17
2017-07-15T12:21:34.514Z,24.28
2017-07-15T12:22:35.267Z,24.36
2017-07-15T12:23:36.005Z,24.26
2017-07-15T12:24:36.742Z,24.38
2017-07-15T12:25:37.481Z,24.55
2017-07-15T12:26:38.215Z,24.60
2017-07-15T12:27:38.958Z,25.18
2017-07-15T12:28:39.693Z,25.10
2017-07-15T12:29:40.428Z,25.38
2017-07-15T12:30:41.171Z,25.35
2017-07-15T12:31:41.908Z,25.50
2017-07-15T12:32:42.648Z,25.25
2017-07-15T12:33:43.399Z,25.58
2017-07-15T12:34:44.156Z,25.60
2017-07-15T12:35:44.891Z,25.40
2017-07-15T12:36:45.656Z,25.26
2017-07-15T12:37:46.390Z,25.08
2017-07-15T12:38:47.129Z,24.98
2017-07-15T12:39:47.875Z,25.11
2017-07-15T12:40:48.613Z,25.04
2017-07-15T12:41:49.376Z,25.18
2017-07-15T12:42:50.119Z,25.53
2017-07-15T12:43:50.858Z,25.59
2017-07-15T12:44:51.616Z,25.70
2017-07-15T12:45:52.353Z,25.66
2017-07-15T12:46:53.094Z,25.38
2017-07-15T12:47:53.832Z,24.76
2017-07-15T12:48:54.574Z,24.85
2017-07-15T12:49:55.337Z,24.70
2017-07-15T12:50:56.090Z,24.76
2017-07-15T12:51:56.826Z,24.69
2017-07-15T12:52:57.562Z,24.43
2017-07-15T12:53:58.304Z,24.45
2017-07-15T12:54:59.043Z,24.39
2017-07-15T12:55:59.819Z,24.54
2017-07-15T12:57:00.579Z,24.55
2017-07-15T12:58:01.332Z,24.39
2017-07-15T12:59:02.065Z,24.24
2017-07-15T13:00:02.798Z,23.98
2017-07-15T13:01:03.552Z,23.54
2017-07-15T13:02:04.288Z,23.59
2017-07-15T13:03:05.021Z,23.66